Metar-ilmailun säätiedot     EFOU Oulu Airport
Lämpötila
57°F Lämpötila
50°F Kastepiste
77% Kosteus



Tuuli
5 MPH
8 KM/H
2 M/S
4 KTS



270°
L
Nykyiset olosuhteet

Selkeää Selkeää
Paine 1022.92 (hPa) - 30.21 (inHg)
Näkyvyys 6.2 (maili) - 10 (km)
Lentokenttä
Lentokentän koodi EFOU

Sijainti: Oulu Airport
Etäisyys:: 83 (mi)

Metar:
EFOU 081850Z AUTO 27004KT CAVOK 14/10 Q1023

Aika: 08-08-2022 21:50 EEST